createdAt,value
2022-11-12T00:00:48.023Z,11.32
2022-11-12T00:06:04.695Z,11.36
2022-11-12T00:11:21.594Z,11.21
2022-11-12T00:16:39.366Z,11.31
2022-11-12T00:21:56.668Z,11.28
2022-11-12T00:27:12.890Z,11.39
2022-11-12T00:32:43.631Z,11.27
2022-11-12T00:38:07.705Z,11.17
2022-11-12T00:43:33.571Z,11.12
2022-11-12T00:48:57.596Z,11.17
2022-11-12T00:54:15.945Z,11.33
2022-11-12T00:59:45.694Z,11.17
2022-11-12T01:05:05.868Z,11.08
2022-11-12T01:10:22.961Z,11.21
2022-11-12T01:15:43.296Z,11.14
2022-11-12T01:21:03.000Z,11.01
2022-11-12T01:26:23.219Z,10.91
2022-11-12T01:31:43.082Z,11.06
2022-11-12T01:37:03.655Z,11.01
2022-11-12T01:42:24.208Z,11.02
2022-11-12T01:47:42.393Z,11.18
2022-11-12T01:53:01.669Z,11.16
2022-11-12T01:58:25.578Z,11.32
2022-11-12T02:03:44.396Z,11.05
2022-11-12T02:09:02.141Z,11.06
2022-11-12T02:14:22.033Z,11.04
2022-11-12T02:19:42.854Z,11.05
2022-11-12T02:25:01.981Z,11.07
2022-11-12T02:30:22.983Z,11.19
2022-11-12T02:35:51.072Z,10.99
2022-11-12T02:41:09.361Z,10.88
2022-11-12T02:46:26.813Z,11.00
2022-11-12T02:51:46.635Z,10.79
2022-11-12T02:57:09.098Z,10.91
2022-11-12T03:02:28.125Z,10.89
2022-11-12T03:07:46.952Z,10.72
2022-11-12T03:13:02.735Z,10.91
2022-11-12T03:18:25.385Z,10.77
2022-11-12T03:23:46.557Z,10.69
2022-11-12T03:29:04.508Z,10.79
2022-11-12T03:34:23.907Z,11.05
2022-11-12T03:39:44.374Z,10.98
2022-11-12T03:45:02.742Z,11.07
2022-11-12T03:50:26.234Z,11.18
2022-11-12T03:55:45.865Z,11.13
2022-11-12T04:01:07.023Z,11.26
2022-11-12T04:06:46.157Z,11.03
2022-11-12T04:12:28.144Z,11.19
2022-11-12T04:18:08.833Z,11.14
2022-11-12T04:23:25.846Z,11.03
2022-11-12T04:29:07.642Z,11.00
2022-11-12T04:34:30.424Z,11.05
2022-11-12T04:39:48.240Z,10.71
2022-11-12T04:45:06.731Z,10.88
2022-11-12T04:50:23.197Z,11.19
2022-11-12T04:55:41.410Z,11.10
2022-11-12T05:00:58.868Z,10.92
2022-11-12T05:06:36.091Z,10.88
2022-11-12T05:11:53.377Z,10.77
2022-11-12T05:17:13.809Z,10.75
2022-11-12T05:22:45.542Z,10.83
2022-11-12T05:28:07.051Z,10.87
2022-11-12T05:33:26.422Z,10.89
2022-11-12T05:38:44.777Z,11.09
2022-11-12T05:44:01.305Z,11.27
2022-11-12T05:49:22.117Z,10.90
2022-11-12T05:54:39.092Z,11.05
2022-11-12T06:00:06.478Z,11.22
2022-11-12T06:05:32.005Z,11.39
2022-11-12T06:10:53.837Z,11.37
2022-11-12T06:16:10.562Z,11.31
2022-11-12T06:21:30.141Z,10.78
2022-11-12T06:26:47.373Z,10.71
2022-11-12T06:32:03.723Z,10.57
2022-11-12T06:37:25.068Z,10.65
2022-11-12T06:42:46.170Z,10.55
2022-11-12T06:48:02.312Z,10.62
2022-11-12T06:53:19.704Z,10.40
2022-11-12T06:58:42.030Z,10.71
2022-11-12T07:04:01.530Z,10.75
2022-11-12T07:09:32.000Z,10.76
2022-11-12T07:14:48.271Z,10.85
2022-11-12T07:20:07.754Z,10.90
2022-11-12T07:25:29.631Z,11.04
2022-11-12T07:30:50.361Z,11.14
2022-11-12T07:36:07.843Z,10.96
2022-11-12T07:41:25.580Z,10.79
2022-11-12T07:46:45.450Z,10.90
2022-11-12T07:52:05.505Z,10.52
2022-11-12T07:57:22.836Z,11.10
2022-11-12T08:02:40.941Z,11.05
2022-11-12T08:08:03.931Z,10.95
2022-11-12T08:13:25.170Z,10.63
2022-11-12T08:18:42.407Z,10.82
2022-11-12T08:23:59.080Z,10.85
2022-11-12T08:29:15.707Z,10.96
2022-11-12T08:34:42.275Z,11.16
2022-11-12T08:40:00.996Z,11.39
2022-11-12T08:45:18.587Z,11.23
2022-11-12T08:50:36.037Z,11.47
2022-11-12T08:56:06.769Z,11.95
2022-11-12T09:01:28.191Z,11.95
2022-11-12T09:06:47.704Z,12.11
2022-11-12T09:12:16.390Z,12.07
2022-11-12T09:17:37.336Z,12.30
2022-11-12T09:22:57.717Z,12.39
2022-11-12T09:28:18.383Z,12.46
2022-11-12T09:33:34.786Z,12.30
2022-11-12T09:38:54.148Z,11.92
2022-11-12T09:44:16.499Z,11.84
2022-11-12T09:49:35.197Z,12.01
2022-11-12T09:54:51.696Z,12.09
2022-11-12T10:00:18.585Z,12.48
2022-11-12T10:05:37.390Z,12.35
2022-11-12T10:10:59.341Z,12.52
2022-11-12T10:16:37.902Z,12.82
2022-11-12T10:22:14.816Z,12.98
2022-11-12T10:27:39.941Z,13.10
2022-11-12T10:32:59.384Z,13.51
2022-11-12T10:38:21.491Z,13.30
2022-11-12T10:43:38.262Z,13.43
2022-11-12T10:49:00.220Z,13.53
2022-11-12T10:54:21.131Z,13.55
2022-11-12T10:59:38.201Z,13.30
2022-11-12T11:04:54.031Z,13.57
2022-11-12T11:10:11.861Z,13.89
2022-11-12T11:15:29.395Z,14.00
2022-11-12T11:20:48.209Z,13.76
2022-11-12T11:26:15.349Z,13.62
2022-11-12T11:32:09.422Z,13.93
2022-11-12T11:37:29.412Z,13.64
2022-11-12T11:42:49.696Z,13.95
2022-11-12T11:48:07.332Z,13.95
2022-11-12T11:53:34.240Z,13.81
2022-11-12T11:59:12.466Z,13.88
2022-11-12T12:04:41.234Z,13.90
2022-11-12T12:10:09.032Z,13.78
2022-11-12T12:15:42.317Z,14.16
2022-11-12T12:21:24.966Z,14.24
2022-11-12T12:27:06.647Z,13.75
2022-11-12T12:32:27.446Z,13.84
2022-11-12T12:38:05.183Z,14.10
2022-11-12T12:43:34.026Z,14.39
2022-11-12T12:48:52.333Z,14.57
2022-11-12T12:54:28.599Z,14.64
2022-11-12T12:59:48.519Z,14.85
2022-11-12T13:05:07.572Z,14.96
2022-11-12T13:10:41.466Z,14.58
2022-11-12T13:16:12.052Z,14.88
2022-11-12T13:21:30.626Z,14.92
2022-11-12T13:26:49.917Z,14.85
2022-11-12T13:32:27.366Z,14.89
2022-11-12T13:38:07.395Z,14.68
2022-11-12T13:43:39.075Z,14.22
2022-11-12T13:49:11.357Z,14.34
2022-11-12T13:54:48.048Z,14.44
2022-11-12T14:00:33.170Z,14.47
2022-11-12T14:05:51.751Z,14.39
2022-11-12T14:11:19.153Z,14.57
2022-11-12T14:16:48.858Z,14.58
2022-11-12T14:22:15.315Z,14.59
2022-11-12T14:27:37.953Z,14.34
2022-11-12T14:33:01.731Z,14.35
2022-11-12T14:38:21.413Z,14.30
2022-11-12T14:43:45.823Z,14.38
2022-11-12T14:49:03.925Z,14.43
2022-11-12T14:54:26.431Z,14.00
2022-11-12T14:59:45.440Z,14.18
2022-11-12T15:05:23.697Z,14.26
2022-11-12T15:10:41.944Z,14.31
2022-11-12T15:15:58.208Z,14.28
2022-11-12T15:21:18.687Z,14.33
2022-11-12T15:26:42.282Z,14.33
2022-11-12T15:32:00.243Z,14.30
2022-11-12T15:37:23.434Z,14.22
2022-11-12T15:42:45.536Z,14.22
2022-11-12T15:48:02.130Z,14.19
2022-11-12T15:53:27.095Z,14.12
2022-11-12T15:58:48.293Z,14.05
2022-11-12T16:04:08.230Z,14.01
2022-11-12T16:09:27.943Z,13.92
2022-11-12T16:14:46.169Z,13.76
2022-11-12T16:20:07.298Z,13.51
2022-11-12T16:25:28.243Z,13.38
2022-11-12T16:30:47.899Z,13.14
2022-11-12T16:36:04.548Z,12.91
2022-11-12T16:41:24.827Z,12.76
2022-11-12T16:46:49.621Z,12.64
2022-11-12T16:52:09.733Z,12.58
2022-11-12T16:57:27.111Z,12.47
2022-11-12T17:02:47.252Z,12.38
2022-11-12T17:08:08.871Z,12.22
2022-11-12T17:13:26.521Z,12.19
2022-11-12T17:18:43.600Z,12.11
2022-11-12T17:24:00.827Z,12.10
2022-11-12T17:29:18.877Z,12.07
2022-11-12T17:34:44.555Z,12.05
2022-11-12T17:40:01.622Z,12.00
2022-11-12T17:45:19.585Z,11.94
2022-11-12T17:50:38.067Z,11.82
2022-11-12T17:55:58.437Z,11.63
2022-11-12T18:01:16.576Z,11.54
2022-11-12T18:06:36.273Z,11.48
2022-11-12T18:11:56.932Z,11.57
2022-11-12T18:17:16.496Z,11.58
2022-11-12T18:22:35.018Z,11.52
2022-11-12T18:27:51.422Z,11.23
2022-11-12T18:33:08.213Z,11.16
2022-11-12T18:38:28.716Z,11.33
2022-11-12T18:43:47.419Z,11.37
2022-11-12T18:49:14.451Z,11.31
2022-11-12T18:54:32.965Z,11.29
2022-11-12T18:59:52.828Z,11.15
2022-11-12T19:05:09.085Z,11.06
2022-11-12T19:10:26.581Z,10.92
2022-11-12T19:15:48.036Z,10.98
2022-11-12T19:21:06.696Z,10.86
2022-11-12T19:26:26.407Z,10.78
2022-11-12T19:31:47.330Z,10.75
2022-11-12T19:37:31.633Z,10.82
2022-11-12T19:43:03.308Z,10.72
2022-11-12T19:48:23.464Z,10.74
2022-11-12T19:53:42.729Z,10.67
2022-11-12T19:58:59.985Z,10.71
2022-11-12T20:04:24.313Z,10.76
2022-11-12T20:09:42.771Z,10.65
2022-11-12T20:14:59.589Z,10.59
2022-11-12T20:20:20.944Z,10.60
2022-11-12T20:25:38.142Z,10.76
2022-11-12T20:31:04.994Z,10.61
2022-11-12T20:36:22.008Z,10.49
2022-11-12T20:41:41.345Z,10.48
2022-11-12T20:46:58.844Z,10.43
2022-11-12T20:52:19.807Z,10.15
2022-11-12T20:57:46.802Z,10.20
2022-11-12T21:03:08.670Z,10.21
2022-11-12T21:08:48.083Z,10.26
2022-11-12T21:14:22.241Z,9.94
2022-11-12T21:19:40.903Z,9.96
2022-11-12T21:24:58.407Z,9.89
2022-11-12T21:30:14.442Z,9.80
2022-11-12T21:35:33.633Z,9.91
2022-11-12T21:40:51.793Z,9.76
2022-11-12T21:46:11.924Z,9.60
2022-11-12T21:51:33.997Z,9.59
2022-11-12T21:57:00.522Z,9.58
2022-11-12T22:02:20.385Z,9.59
2022-11-12T22:07:41.582Z,9.57
2022-11-12T22:30:58.164Z,9.55
2022-11-12T22:36:45.158Z,9.77
2022-11-12T22:42:06.461Z,9.81
2022-11-12T22:47:23.765Z,9.48
2022-11-12T22:52:54.168Z,9.45
2022-11-12T22:58:12.228Z,9.32
2022-11-12T23:03:36.091Z,9.46
2022-11-12T23:08:54.868Z,9.52
2022-11-12T23:14:13.002Z,9.56
2022-11-12T23:19:31.700Z,9.13
2022-11-12T23:24:50.427Z,8.81
2022-11-12T23:30:11.610Z,8.59
2022-11-12T23:35:28.684Z,8.76
2022-11-12T23:41:02.090Z,8.41
2022-11-12T23:46:29.166Z,8.19
2022-11-12T23:51:48.755Z,8.22
2022-11-12T23:57:09.434Z,7.83
